Time;durP1;ratioP1;P1;durP2;ratioP2;P2;SDS_P1;SDS_P2;PMS_P1;PMS_P2;Temp;Humidity;BMP_temperature;BMP_pressure;BME280_temperature;BME280_humidity;BME280_pressure;Samples;Min_cycle;Max_cycle;Signal;HPM_P1;HPM_P2
2021/12/04 01:43:46;;;;;;;56.78;20.88;;;9.60;99.90;;;;;;4694367;30;20422;-93
2021/12/04 01:50:45;;;;;;;121.40;26.85;;;8.90;99.90;;;;;;4736984;30;20043;-94
2021/12/04 02:00:57;;;;;;;67.85;19.23;;;9.30;99.90;;;;;;4632675;30;20050;-94
2021/12/04 02:03:38;;;;;;;46.05;15.98;;;5.30;99.90;;;;;;4640750;30;20126;-94
2021/12/04 02:06:14;;;;;;;;;;;;;;;;;;;;;
2021/12/04 02:09:15;;;;;;;43.45;17.50;;;11.60;99.90;;;;;;4718368;30;20060;-95
2021/12/04 02:23:33;;;;;;;59.92;18.58;;;4.80;99.90;;;;;;4752706;30;20529;-94
2021/12/04 02:41:27;;;;;;;98.15;22.33;;;5.40;99.90;;;;;;4752430;30;20089;-94
2021/12/04 02:48:39;;;;;;;75.50;18.20;;;4.00;99.90;;;;;;4731245;30;20157;-94
2021/12/04 02:51:44;;;;;;;57.95;18.02;;;9.60;99.90;;;;;;4698443;30;20040;-92
2021/12/04 02:54:22;;;;;;;170.50;26.38;;;7.90;99.90;;;;;;4718291;30;20049;-94
2021/12/04 03:01:24;;;;;;;181.07;27.35;;;4.70;99.90;;;;;;4770689;29;20050;-93
2021/12/04 03:04:45;;;;;;;75.30;19.65;;;3.80;99.90;;;;;;4753757;30;20047;-93
2021/12/04 03:07:50;;;;;;;;;;;;;;;;;;;;;
2021/12/04 03:10:16;;;;;;;48.35;19.25;;;9.30;99.90;;;;;;4754264;29;20052;-93
2021/12/04 03:12:45;;;;;;;36.75;17.10;;;5.00;99.90;;;;;;4742823;30;20402;-93
2021/12/04 03:15:11;;;;;;;52.17;17.88;;;2.70;99.90;;;;;;4786860;30;20043;-92
2021/12/04 03:17:40;;;;;;;46.63;17.00;;;7.60;99.90;;;;;;4803964;29;20534;-92
2021/12/04 03:20:15;;;;;;;70.70;16.90;;;4.60;99.90;;;;;;4809870;29;20082;-93
2021/12/04 03:22:48;;;;;;;63.10;17.90;;;9.70;99.90;;;;;;4810038;29;20404;-93
2021/12/04 03:25:24;;;;;;;55.25;17.55;;;9.70;99.90;;;;;;4824446;29;20058;-93
2021/12/04 03:28:00;;;;;;;77.35;21.52;;;8.60;99.90;;;;;;4809155;29;20049;-93
2021/12/04 03:30:52;;;;;;;;;;;;;;;;;;;;;
2021/12/04 03:41:07;;;;;;;98.80;20.27;;;5.20;99.90;;;;;;4799616;29;20110;-94
2021/12/04 03:44:08;;;;;;;51.33;17.38;;;6.20;99.90;;;;;;4806437;29;20050;-94
2021/12/04 03:54:16;;;;;;;97.45;20.25;;;4.20;99.90;;;;;;4767001;29;20055;-92
2021/12/04 03:56:51;;;;;;;106.90;23.27;;;5.40;99.90;;;;;;4824294;29;20133;-93
2021/12/04 03:59:50;;;;;;;100.28;21.85;;;5.20;99.90;;;;;;4824484;29;20050;-94
2021/12/04 04:02:28;;;;;;;185.60;25.83;;;9.00;99.90;;;;;;4809438;29;20058;-93
2021/12/04 04:05:40;;;;;;;122.90;23.75;;;8.50;99.90;;;;;;4823840;29;20062;-93
2021/12/04 04:09:09;;;;;;;100.93;21.33;;;8.40;99.90;;;;;;4823969;29;20069;-93
2021/12/04 04:11:41;;;;;;;212.13;27.25;;;7.20;99.90;;;;;;4808129;29;20146;-93
2021/12/04 04:22:15;;;;;;;75.47;18.70;;;8.50;99.90;;;;;;4761973;29;20482;-91
2021/12/04 04:29:06;;;;;;;;;;;;;;;;;;;;;
2021/12/04 04:32:07;;;;;;;;;;;;;;;;;;;;;
2021/12/04 04:34:38;;;;;;;216.40;30.48;;;10.20;99.90;;;;;;4821471;29;20137;-92
2021/12/04 05:01:50;;;;;;;;;;;;;;;;;;;;;
2021/12/04 05:12:45;;;;;;;;;;;;;;;;;;;;;
2021/12/04 05:19:39;;;;;;;386.40;37.63;;;11.50;99.90;;;;;;4764721;30;20142;-91
2021/12/04 05:26:35;;;;;;;327.80;35.83;;;4.20;99.90;;;;;;4827063;29;20110;-92
2021/12/04 05:44:24;;;;;;;;;;;;;;;;;;;;;
2021/12/04 05:47:03;;;;;;;152.13;23.52;;;9.30;99.90;;;;;;4771169;30;20084;-91
2021/12/04 06:12:07;;;;;;;160.65;24.00;;;9.50;99.90;;;;;;4760793;29;20070;-91
2021/12/04 06:15:20;;;;;;;172.73;25.10;;;9.50;99.90;;;;;;4792877;29;20111;-92
2021/12/04 06:18:08;;;;;;;155.05;24.95;;;4.00;99.90;;;;;;4821600;29;20051;-93
2021/12/04 06:24:37;;;;;;;512.53;44.83;;;8.20;99.90;;;;;;4826101;29;20129;-93
2021/12/04 07:02:29;;;;;;;;;;;;;;;;;;;;;
2021/12/04 07:09:11;;;;;;;529.83;43.00;;;9.80;99.90;;;;;;4661792;30;20095;-92
2021/12/04 07:11:59;;;;;;;467.77;40.80;;;4.40;99.90;;;;;;4651232;30;20062;-91
2021/12/04 07:37:47;;;;;;;343.17;31.98;;;6.50;99.90;;;;;;4717666;30;20051;-92
2021/12/04 08:09:31;;;;;;;255.10;28.45;;;9.10;99.90;;;;;;4696759;30;20048;-91
2021/12/04 08:12:59;;;;;;;;;;;;;;;;;;;;;
2021/12/04 08:19:43;;;;;;;83.10;17.63;;;9.60;99.90;;;;;;4769001;29;20062;-92
2021/12/04 08:22:44;;;;;;;152.60;26.48;;;4.20;99.90;;;;;;4793504;29;20163;-92
2021/12/04 08:44:37;;;;;;;204.18;22.27;;;4.10;99.90;;;;;;4739799;30;20118;-92
2021/12/04 08:47:45;;;;;;;;;;;;;;;;;;;;;
2021/12/04 08:51:08;;;;;;;72.95;15.45;;;6.50;99.90;;;;;;4666417;30;20066;-91
2021/12/04 10:01:23;;;;;;;167.52;26.88;;;5.20;99.90;;;;;;4843578;29;20414;-91
2021/12/04 10:04:07;;;;;;;110.10;21.23;;;4.40;99.90;;;;;;4827553;29;20048;-90
2021/12/04 10:13:29;;;;;;;147.35;23.92;;;10.80;99.90;;;;;;4846415;29;20049;-92
2021/12/04 10:33:42;;;;;;;94.32;19.27;;;5.30;99.90;;;;;;4828984;29;20574;-91
2021/12/04 10:36:14;;;;;;;33.67;12.48;;;10.70;99.90;;;;;;4828603;29;20046;-91
2021/12/04 10:38:43;;;;;;;90.95;21.75;;;9.10;99.90;;;;;;4829148;29;20530;-91
2021/12/04 10:41:11;;;;;;;89.97;21.23;;;3.70;99.90;;;;;;4828535;29;20407;-90
2021/12/04 10:43:37;;;;;;;167.15;28.75;;;7.40;99.90;;;;;;4827470;29;20170;-90
2021/12/04 10:46:24;;;;;;;78.95;21.88;;;3.90;99.90;;;;;;4827822;29;20078;-90
2021/12/04 10:49:02;;;;;;;57.05;17.80;;;3.30;99.90;;;;;;4827976;29;20217;-91
2021/12/04 10:52:02;;;;;;;48.47;15.77;;;5.50;99.90;;;;;;4827997;29;20067;-90
2021/12/04 10:54:39;;;;;;;57.42;19.77;;;7.80;99.90;;;;;;4813194;29;20411;-91
2021/12/04 11:00:07;;;;;;;45.47;16.27;;;9.00;99.90;;;;;;4827448;29;20057;-89
2021/12/04 11:02:35;;;;;;;;;;;7.60;99.90;;;;;;4827394;29;20113;-88
2021/12/04 11:05:26;;;;;;;32.42;13.35;;;9.40;99.90;;;;;;4827605;29;20309;-90
2021/12/04 11:18:33;;;;;;;;;;;5.20;99.90;;;;;;4827576;29;20100;-90
2021/12/04 11:19:49;;;;;;;34.00;12.98;;;10.80;99.90;;;;;;4827923;29;20085;-91
2021/12/04 11:22:52;;;;;;;62.40;15.10;;;6.40;99.90;;;;;;4827706;29;20058;-94
2021/12/04 11:35:01;;;;;;;53.28;15.77;;;9.30;99.90;;;;;;4824679;29;20072;-91
2021/12/04 11:39:22;;;;;;;96.13;25.13;;;3.90;99.90;;;;;;4825418;29;20458;-90
2021/12/04 11:42:11;;;;;;;78.65;20.08;;;5.10;99.90;;;;;;4811443;29;20381;-90
2021/12/04 11:44:48;;;;;;;65.40;20.05;;;7.50;99.90;;;;;;4811185;29;20047;-91
2021/12/04 11:47:14;;;;;;;78.22;22.13;;;6.40;99.90;;;;;;4811558;29;20062;-91
2021/12/04 11:49:41;;;;;;;108.53;25.80;;;8.80;99.90;;;;;;4812246;29;20053;-91
2021/12/04 11:52:37;;;;;;;108.07;25.13;;;6.30;99.90;;;;;;4812416;29;20141;-92
2021/12/04 12:02:58;;;;;;;45.28;16.67;;;3.80;99.90;;;;;;4832209;29;20033;-93
2021/12/04 12:06:20;;;;;;;;;;;;;;;;;;;;;
2021/12/04 12:09:30;;;;;;;70.13;16.25;;;5.40;99.90;;;;;;4814081;29;20053;-93
2021/12/04 12:16:39;;;;;;;175.50;16.60;;;9.30;99.90;;;;;;4827560;29;20053;-92
2021/12/04 12:27:17;;;;;;;110.07;23.23;;;9.30;99.90;;;;;;4827830;29;20126;-89
2021/12/04 12:45:32;;;;;;;60.10;17.52;;;9.50;99.90;;;;;;4799633;29;20512;-91
2021/12/04 12:48:45;;;;;;;;;;;;;;;;;;;;;
2021/12/04 12:58:52;;;;;;;96.05;26.13;;;7.90;99.90;;;;;;4752871;29;20085;-91
2021/12/04 13:11:41;;;;;;;59.67;19.10;;;9.20;99.90;;;;;;4808525;29;20054;-92
2021/12/04 13:13:44;;;;;;;95.43;26.70;;;5.60;99.90;;;;;;4807893;29;20059;-92
2021/12/04 13:24:38;;;;;;;97.07;23.95;;;10.00;99.90;;;;;;4794822;29;20487;-92
2021/12/04 13:55:09;;;;;;;;;;;;;;;;;;;;;
2021/12/04 13:57:57;;;;;;;46.22;18.10;;;10.00;99.90;;;;;;4773599;30;20055;-92
2021/12/04 14:05:44;;;;;;;60.22;18.40;;;11.50;99.90;;;;;;4754974;30;20047;-93
2021/12/04 14:09:02;;;;;;;;;;;;;;;;;;;;;
2021/12/04 14:11:57;;;;;;;53.65;18.08;;;6.40;99.90;;;;;;4768741;29;20055;-92
2021/12/04 14:14:31;;;;;;;47.25;16.25;;;4.80;99.90;;;;;;4766656;30;20515;-93
2021/12/04 14:17:06;;;;;;;37.50;15.15;;;5.50;99.90;;;;;;4772063;30;20044;-93
2021/12/04 14:19:55;;;;;;;39.97;15.93;;;6.40;99.90;;;;;;4758174;30;20063;-93
2021/12/04 14:22:30;;;;;;;40.67;16.95;;;9.90;99.90;;;;;;4758464;30;20059;-91
2021/12/04 14:25:07;;;;;;;24.25;11.80;;;4.10;99.90;;;;;;4758099;30;20066;-93
2021/12/04 14:27:45;;;;;;;48.55;18.52;;;9.50;99.90;;;;;;4758288;30;20057;-93
2021/12/04 14:30:44;;;;;;;36.85;15.13;;;7.10;99.90;;;;;;4780151;29;20142;-94
2021/12/04 14:33:43;;;;;;;;;;;;;;;;;;;;;
2021/12/04 14:36:34;;;;;;;34.88;13.65;;;4.00;99.90;;;;;;4843834;29;20054;-93
2021/12/04 14:39:03;;;;;;;67.22;21.42;;;9.70;99.90;;;;;;4843287;29;20062;-92
2021/12/04 14:41:32;;;;;;;48.53;17.65;;;5.70;99.90;;;;;;4843119;29;20050;-93
2021/12/04 14:43:58;;;;;;;67.82;22.15;;;7.30;99.90;;;;;;4842541;29;20090;-92
2021/12/04 14:46:26;;;;;;;61.65;22.45;;;10.70;99.90;;;;;;4842292;29;20404;-91
2021/12/04 14:48:54;;;;;;;69.45;23.63;;;5.50;99.90;;;;;;4842258;29;20042;-84
2021/12/04 14:51:22;;;;;;;83.18;25.65;;;4.20;99.90;;;;;;4844495;29;20090;-92
2021/12/04 14:53:54;;;;;;;73.78;23.33;;;9.30;99.90;;;;;;4843296;29;20092;-93
2021/12/04 14:56:29;;;;;;;54.65;19.95;;;7.00;99.90;;;;;;4843258;29;20045;-93
2021/12/04 14:58:56;;;;;;;66.00;20.00;;;6.20;99.90;;;;;;4843218;29;20398;-93
2021/12/04 15:01:32;;;;;;;95.07;25.48;;;5.10;99.90;;;;;;4842974;29;20115;-93
2021/12/04 15:04:02;;;;;;;100.78;25.00;;;5.80;99.90;;;;;;4840547;29;20058;-93
2021/12/04 15:06:38;;;;;;;50.92;17.38;;;5.10;99.90;;;;;;4843129;29;20053;-93
2021/12/04 15:09:13;;;;;;;66.22;22.58;;;9.50;99.90;;;;;;4842689;29;20136;-93
2021/12/04 15:11:44;;;;;;;77.65;21.90;;;4.60;99.90;;;;;;4841976;29;20054;-93
2021/12/04 15:14:16;;;;;;;69.82;22.90;;;4.80;99.90;;;;;;4842589;29;20503;-93
2021/12/04 15:16:48;;;;;;;100.03;24.08;;;4.00;99.90;;;;;;4842560;29;20054;-92
2021/12/04 15:19:28;;;;;;;155.75;24.52;;;4.30;99.90;;;;;;4842348;29;20081;-92
2021/12/04 15:22:03;;;;;;;60.75;18.88;;;3.70;99.90;;;;;;4843030;29;20078;-93
2021/12/04 15:33:04;;;;;;;;;;;;;;;;;;;;;
2021/12/04 15:40:34;;;;;;;;;;;;;;;;;;;;;
2021/12/04 15:44:11;;;;;;;84.15;26.70;;;10.20;99.90;;;;;;4643781;30;20062;-93
2021/12/04 15:47:02;;;;;;;98.40;25.10;;;9.10;99.90;;;;;;4678320;30;20966;-88
2021/12/04 15:55:01;;;;;;;69.22;21.40;;;4.80;99.90;;;;;;4839038;29;20072;-88
2021/12/04 16:15:23;;;;;;;80.68;24.42;;;5.00;99.90;;;;;;4859089;29;20133;-91
2021/12/04 16:17:50;;;;;;;60.03;21.23;;;8.90;99.90;;;;;;4844472;29;20061;-91
2021/12/04 16:20:18;;;;;;;71.07;22.23;;;9.20;99.90;;;;;;4844664;29;20053;-92
2021/12/04 16:22:45;;;;;;;61.20;20.92;;;10.80;99.90;;;;;;4844421;29;20046;-92
2021/12/04 16:25:16;;;;;;;37.60;14.48;;;10.90;99.90;;;;;;4845036;29;20056;-92
2021/12/04 16:33:09;;;;;;;43.72;15.98;;;4.90;99.90;;;;;;4846001;29;20045;-94
2021/12/04 16:38:06;;;;;;;37.22;12.73;;;5.70;99.90;;;;;;4844706;29;20045;-93
2021/12/04 16:40:38;;;;;;;36.75;13.65;;;10.80;99.90;;;;;;4846805;29;20205;-93
2021/12/04 16:43:11;;;;;;;39.97;13.38;;;9.70;99.90;;;;;;4848484;29;20509;-93
2021/12/04 16:45:40;;;;;;;31.80;12.00;;;10.10;99.90;;;;;;4848814;29;20041;-94
2021/12/04 16:48:10;;;;;;;30.42;11.40;;;5.60;99.90;;;;;;4847920;29;20065;-93
2021/12/04 16:58:51;;;;;;;;;;;;;;;;;;;;;
2021/12/04 17:05:32;;;;;;;5.80;2.10;;;8.80;99.90;;;;;;4807743;29;20046;-91
2021/12/04 17:15:38;;;;;;;7.85;1.83;;;8.90;99.90;;;;;;4744045;30;20055;-93
2021/12/04 17:18:15;;;;;;;8.00;1.70;;;11.30;99.90;;;;;;4809414;29;20062;-92
2021/12/04 17:20:49;;;;;;;8.73;2.03;;;4.80;99.90;;;;;;4811821;29;20494;-92
2021/12/04 17:23:19;;;;;;;5.65;1.60;;;4.90;99.90;;;;;;4811172;29;20053;-92
2021/12/04 17:25:45;;;;;;;8.73;1.70;;;5.00;99.90;;;;;;4810697;29;20062;-92
2021/12/04 17:28:12;;;;;;;4.45;1.70;;;5.30;99.90;;;;;;4825768;29;20047;-92
2021/12/04 17:30:39;;;;;;;6.95;1.85;;;9.70;99.90;;;;;;4811225;29;20115;-92
2021/12/04 17:33:10;;;;;;;8.27;2.13;;;11.20;99.90;;;;;;4811409;29;20123;-93
2021/12/04 17:35:37;;;;;;;3.92;1.55;;;10.90;99.90;;;;;;4810723;29;20107;-92
2021/12/04 17:38:07;;;;;;;5.53;1.80;;;4.10;99.90;;;;;;4811119;29;20460;-92
2021/12/04 17:40:37;;;;;;;8.75;1.77;;;9.50;99.90;;;;;;4810648;29;20051;-92
2021/12/04 17:43:11;;;;;;;6.20;1.88;;;4.70;99.90;;;;;;4811271;29;20377;-93
2021/12/04 17:45:37;;;;;;;7.60;1.73;;;8.60;99.90;;;;;;4810883;29;20047;-93
2021/12/04 17:48:18;;;;;;;7.55;2.65;;;9.20;99.90;;;;;;4810686;29;20047;-93
2021/12/04 17:50:48;;;;;;;5.25;2.20;;;5.90;99.90;;;;;;4810705;29;20125;-84
2021/12/04 17:53:19;;;;;;;9.35;2.35;;;5.80;99.90;;;;;;4811620;29;20061;-93
2021/12/04 17:56:11;;;;;;;5.30;2.22;;;4.40;99.90;;;;;;4811100;29;20053;-93
2021/12/04 17:58:47;;;;;;;7.00;2.30;;;6.80;99.90;;;;;;4811757;29;20054;-96
2021/12/04 18:01:17;;;;;;;6.78;2.78;;;5.40;99.90;;;;;;4811359;29;20115;-91
2021/12/04 18:03:46;;;;;;;10.13;2.70;;;9.00;99.90;;;;;;4826526;29;20095;-92
2021/12/04 18:06:17;;;;;;;7.68;2.33;;;2.30;99.90;;;;;;4810340;29;20141;-92
2021/12/04 18:08:43;;;;;;;4.63;1.70;;;4.50;99.90;;;;;;4810176;29;20042;-92
2021/12/04 18:11:12;;;;;;;3.53;1.85;;;8.40;99.90;;;;;;4810102;29;20054;-92
2021/12/04 18:13:41;;;;;;;8.32;3.05;;;11.20;99.90;;;;;;4816581;29;20518;-92
2021/12/04 18:16:16;;;;;;;4.93;2.72;;;8.20;99.90;;;;;;4846404;29;20053;-92
2021/12/04 18:18:44;;;;;;;4.95;2.50;;;4.20;99.90;;;;;;4846148;29;20052;-91
2021/12/04 18:21:10;;;;;;;6.53;2.40;;;9.60;99.90;;;;;;4831164;29;20049;-92
2021/12/04 18:23:39;;;;;;;8.85;2.20;;;10.40;99.90;;;;;;4831453;29;20156;-92
2021/12/04 18:33:41;;;;;;;5.55;1.55;;;5.60;99.90;;;;;;5219671;23;20032;-96
2021/12/04 18:43:56;;;;;;;3.58;1.70;;;7.20;99.90;;;;;;4869279;29;20034;-96
2021/12/04 18:47:25;;;;;;;11.02;2.10;;;7.30;99.90;;;;;;4813340;29;20060;-96
2021/12/04 18:50:38;;;;;;;8.63;1.73;;;3.80;99.90;;;;;;4818665;29;20054;-94
